createdAt,value
2022-12-23T00:01:09.512Z,12.27
2022-12-23T00:06:50.892Z,12.00
2022-12-23T00:09:36.442Z,12.50
2022-12-23T00:12:41.025Z,12.85
2022-12-23T00:15:26.718Z,12.48
2022-12-23T00:18:12.225Z,12.88
2022-12-23T00:21:09.064Z,13.15
2022-12-23T00:23:54.738Z,13.80
2022-12-23T00:26:40.132Z,14.52
2022-12-23T00:29:25.495Z,14.60
2022-12-23T00:32:10.995Z,13.38
2022-12-23T00:34:56.298Z,13.60
2022-12-23T00:37:41.927Z,11.82
2022-12-23T00:40:46.261Z,12.50
2022-12-23T00:43:31.904Z,10.75
2022-12-23T00:46:17.631Z,12.15
2022-12-23T00:49:22.155Z,10.35
2022-12-23T00:52:11.781Z,11.07
2022-12-23T00:54:57.189Z,9.70
2022-12-23T00:57:42.696Z,10.63
2022-12-23T01:00:46.516Z,11.35
2022-12-23T01:03:50.931Z,10.65
2022-12-23T01:06:36.376Z,11.68
2022-12-23T01:09:21.807Z,12.68
2022-12-23T01:12:07.478Z,12.88
2022-12-23T01:14:53.395Z,11.70
2022-12-23T01:17:39.162Z,10.48
2022-12-23T01:20:25.289Z,10.10
2022-12-23T01:23:10.976Z,10.23
2022-12-23T01:25:58.629Z,10.75
2022-12-23T01:28:44.381Z,10.25
2022-12-23T01:31:30.438Z,10.13
2022-12-23T01:34:16.426Z,10.13
2022-12-23T01:37:02.306Z,11.70
2022-12-23T01:39:47.782Z,12.45
2022-12-23T01:42:45.278Z,9.77
2022-12-23T01:45:33.441Z,9.73
2022-12-23T01:48:26.805Z,9.73
2022-12-23T01:51:23.620Z,8.88
2022-12-23T01:54:09.178Z,8.02
2022-12-23T01:56:54.669Z,7.45
2022-12-23T02:00:00.166Z,9.20
2022-12-23T02:03:05.345Z,8.32
2022-12-23T02:05:52.669Z,10.10
2022-12-23T02:08:58.178Z,9.85
2022-12-23T02:12:12.407Z,10.65
2022-12-23T02:15:50.898Z,10.25
2022-12-23T02:18:53.268Z,9.30
2022-12-23T02:25:49.752Z,9.68
2022-12-23T02:28:58.775Z,8.43
2022-12-23T02:32:24.559Z,9.32
2022-12-23T02:35:46.810Z,8.77
2022-12-23T02:38:48.181Z,9.38
2022-12-23T02:42:07.468Z,9.57
2022-12-23T02:45:00.361Z,9.43
2022-12-23T02:47:56.464Z,8.95
2022-12-23T02:50:45.556Z,9.07
2022-12-23T02:53:42.442Z,9.30
2022-12-23T02:56:43.241Z,9.40
2022-12-23T02:59:36.775Z,9.70
2022-12-23T03:02:22.585Z,9.55
2022-12-23T03:05:46.549Z,10.23
2022-12-23T03:08:42.787Z,9.45
2022-12-23T03:12:09.583Z,10.30
2022-12-23T03:15:48.852Z,10.38
2022-12-23T03:19:05.203Z,10.20
2022-12-23T03:22:08.331Z,10.80
2022-12-23T03:25:20.667Z,10.35
2022-12-23T03:28:21.058Z,10.55
2022-12-23T03:31:12.806Z,10.70
2022-12-23T03:34:08.199Z,9.65
2022-12-23T03:36:58.662Z,9.02
2022-12-23T03:39:55.128Z,9.85
2022-12-23T03:42:44.584Z,9.93
2022-12-23T03:45:40.283Z,9.48
2022-12-23T03:48:50.395Z,9.30
2022-12-23T03:51:56.266Z,9.68
2022-12-23T03:54:53.181Z,9.70
2022-12-23T03:57:45.345Z,10.93
2022-12-23T04:00:40.829Z,9.82
2022-12-23T04:03:53.429Z,10.65
2022-12-23T04:07:07.420Z,9.00
2022-12-23T04:09:54.273Z,9.85
2022-12-23T04:12:40.416Z,9.18
2022-12-23T04:15:27.879Z,8.35
2022-12-23T04:18:13.777Z,8.38
2022-12-23T04:20:59.455Z,9.82
2022-12-23T04:23:44.769Z,8.43
2022-12-23T04:26:30.033Z,9.38
2022-12-23T04:29:16.180Z,10.38
2022-12-23T04:32:01.665Z,12.77
2022-12-23T04:34:47.088Z,14.80
2022-12-23T04:37:33.276Z,14.40
2022-12-23T04:40:18.948Z,13.30
2022-12-23T04:43:04.845Z,12.15
2022-12-23T04:45:51.968Z,11.13
2022-12-23T04:48:37.758Z,13.45
2022-12-23T04:51:23.731Z,11.32
2022-12-23T04:54:09.131Z,12.13
2022-12-23T04:56:54.518Z,12.80
2022-12-23T04:59:39.908Z,12.57
2022-12-23T05:02:27.012Z,13.90
2022-12-23T05:05:12.987Z,13.93
2022-12-23T05:08:05.563Z,13.73
2022-12-23T05:10:51.445Z,15.77
2022-12-23T05:13:36.926Z,15.35
2022-12-23T05:16:22.432Z,15.00
2022-12-23T05:19:10.022Z,16.05
2022-12-23T05:21:55.704Z,15.48
2022-12-23T05:24:41.171Z,16.10
2022-12-23T05:27:26.462Z,15.68
2022-12-23T05:30:12.331Z,15.82
2022-12-23T05:32:58.624Z,18.27
2022-12-23T05:35:44.526Z,16.83
2022-12-23T05:38:30.386Z,17.52
2022-12-23T05:41:16.833Z,16.73
2022-12-23T05:44:02.657Z,16.55
2022-12-23T05:46:47.987Z,16.55
2022-12-23T05:49:33.276Z,16.48
2022-12-23T05:52:18.815Z,16.08
2022-12-23T05:55:05.341Z,15.80
2022-12-23T05:57:52.341Z,15.70
2022-12-23T06:00:38.438Z,17.42
2022-12-23T06:03:24.694Z,15.77
2022-12-23T06:06:10.392Z,16.17
2022-12-23T06:08:59.872Z,18.98
2022-12-23T06:11:46.327Z,17.77
2022-12-23T06:14:31.728Z,17.70
2022-12-23T06:17:17.559Z,18.88
2022-12-23T06:20:04.019Z,18.35
2022-12-23T06:22:49.846Z,16.67
2022-12-23T06:25:35.288Z,17.77
2022-12-23T06:28:20.866Z,17.95
2022-12-23T06:31:06.185Z,17.80
2022-12-23T06:33:52.317Z,20.17
2022-12-23T06:36:37.654Z,17.85
2022-12-23T06:39:23.318Z,18.48
2022-12-23T06:42:09.262Z,20.65
2022-12-23T06:44:54.986Z,19.77
2022-12-23T06:47:40.650Z,22.15
2022-12-23T06:50:26.481Z,21.15
2022-12-23T06:53:12.777Z,19.30
2022-12-23T06:56:03.454Z,19.45
2022-12-23T06:58:49.174Z,19.13
2022-12-23T07:01:34.809Z,20.85
2022-12-23T07:04:20.626Z,19.98
2022-12-23T07:07:05.915Z,21.60
2022-12-23T07:09:51.181Z,20.40
2022-12-23T07:12:36.511Z,20.45
2022-12-23T07:15:21.955Z,21.95
2022-12-23T07:18:07.867Z,22.17
2022-12-23T07:20:53.303Z,22.77
2022-12-23T07:23:38.824Z,23.88
2022-12-23T07:26:24.119Z,24.77
2022-12-23T07:29:09.418Z,24.65
2022-12-23T07:31:55.086Z,25.10
2022-12-23T07:34:40.896Z,25.55
2022-12-23T07:37:26.577Z,23.33
2022-12-23T07:40:12.608Z,23.35
2022-12-23T07:42:59.445Z,25.05
2022-12-23T07:45:45.074Z,25.70
2022-12-23T07:48:30.839Z,25.13
2022-12-23T07:51:16.462Z,26.58
2022-12-23T07:54:01.743Z,27.40
2022-12-23T07:56:47.226Z,27.98
2022-12-23T07:59:32.832Z,28.58
2022-12-23T08:02:18.332Z,28.20
2022-12-23T08:05:04.771Z,29.70
2022-12-23T08:07:52.124Z,30.05
2022-12-23T08:10:41.456Z,27.88
2022-12-23T08:13:31.449Z,28.80
2022-12-23T08:16:16.830Z,26.85
2022-12-23T08:19:02.810Z,28.60
2022-12-23T08:21:48.517Z,26.88
2022-12-23T08:24:33.917Z,28.08
2022-12-23T08:27:19.731Z,28.13
2022-12-23T08:30:06.854Z,33.45
2022-12-23T08:32:52.398Z,33.10
2022-12-23T08:35:37.689Z,32.13
2022-12-23T08:38:23.276Z,29.20
2022-12-23T08:41:15.853Z,27.63
2022-12-23T08:44:01.168Z,27.75
2022-12-23T08:46:46.970Z,31.60
2022-12-23T08:49:32.554Z,28.73
2022-12-23T08:52:17.979Z,27.50
2022-12-23T08:55:03.601Z,24.80
2022-12-23T08:57:48.952Z,26.52
2022-12-23T09:00:35.564Z,25.25
2022-12-23T09:03:21.500Z,24.33
2022-12-23T09:06:13.827Z,24.77
2022-12-23T09:11:45.915Z,24.90
2022-12-23T09:14:31.643Z,24.40
2022-12-23T09:17:17.811Z,24.45
2022-12-23T09:20:04.723Z,24.65
2022-12-23T09:22:50.554Z,26.30
2022-12-23T09:25:37.245Z,26.50
2022-12-23T09:28:24.247Z,24.40
2022-12-23T09:31:12.379Z,24.73
2022-12-23T09:33:58.077Z,24.30
2022-12-23T09:36:43.511Z,22.60
2022-12-23T09:39:28.872Z,24.45
2022-12-23T09:43:00.956Z,23.33
2022-12-23T09:46:24.047Z,21.98
2022-12-23T09:49:15.400Z,23.02
2022-12-23T09:52:06.595Z,23.08
2022-12-23T09:54:55.402Z,22.45
2022-12-23T09:58:01.109Z,22.88
2022-12-23T10:01:08.649Z,23.63
2022-12-23T10:04:56.412Z,24.45
2022-12-23T10:08:00.218Z,24.48
2022-12-23T10:10:55.322Z,27.38
2022-12-23T10:14:14.927Z,27.48
2022-12-23T10:17:17.902Z,29.00
2022-12-23T10:20:07.037Z,25.92
2022-12-23T10:22:55.155Z,25.80
2022-12-23T10:25:51.624Z,24.67
2022-12-23T10:28:37.599Z,23.88
2022-12-23T10:32:21.681Z,23.77
2022-12-23T10:35:30.075Z,20.00
2022-12-23T10:38:45.443Z,19.58
2022-12-23T10:42:19.588Z,18.63
2022-12-23T10:45:07.583Z,20.67
2022-12-23T10:48:12.030Z,20.02
2022-12-23T10:51:29.895Z,21.13
2022-12-23T10:54:23.991Z,21.70
2022-12-23T10:57:10.423Z,20.52
2022-12-23T10:59:56.843Z,20.73
2022-12-23T11:03:36.505Z,21.15
2022-12-23T11:06:23.223Z,19.85
2022-12-23T11:09:21.958Z,19.38
2022-12-23T11:12:11.005Z,20.13
2022-12-23T11:14:57.951Z,20.50
2022-12-23T11:17:57.140Z,21.02
2022-12-23T11:20:46.020Z,20.27
2022-12-23T11:23:36.611Z,22.75
2022-12-23T11:26:22.432Z,23.42
2022-12-23T11:29:16.079Z,20.95
2022-12-23T11:32:15.161Z,24.42
2022-12-23T11:35:01.005Z,24.05
2022-12-23T11:37:46.892Z,23.33
2022-12-23T11:40:38.729Z,20.85
2022-12-23T11:43:26.542Z,20.25
2022-12-23T11:46:33.165Z,17.55
2022-12-23T11:49:18.897Z,18.85
2022-12-23T11:52:16.956Z,17.85
2022-12-23T11:55:05.852Z,16.73
2022-12-23T11:57:52.564Z,16.80
2022-12-23T12:00:55.292Z,16.30
2022-12-23T12:03:54.758Z,15.15
2022-12-23T12:06:49.761Z,16.08
2022-12-23T12:09:42.106Z,18.25
2022-12-23T12:12:29.346Z,18.20
2022-12-23T12:15:44.161Z,18.08
2022-12-23T12:18:29.999Z,18.02
2022-12-23T12:21:23.824Z,17.42
2022-12-23T12:24:19.854Z,17.90
2022-12-23T12:27:08.121Z,17.50
2022-12-23T12:30:04.576Z,19.15
2022-12-23T12:33:23.440Z,19.10
2022-12-23T12:36:47.886Z,18.42
2022-12-23T12:39:43.993Z,19.88
2022-12-23T12:42:47.333Z,18.25
2022-12-23T12:45:46.000Z,18.58
2022-12-23T12:48:42.112Z,19.45
2022-12-23T12:51:52.895Z,19.20
2022-12-23T12:55:01.958Z,19.30
2022-12-23T12:57:47.372Z,18.02
2022-12-23T13:00:53.345Z,18.25
2022-12-23T13:04:01.220Z,19.25
2022-12-23T13:07:07.875Z,19.98
2022-12-23T13:10:11.426Z,19.90
2022-12-23T13:13:53.586Z,20.42
2022-12-23T13:16:49.303Z,21.13
2022-12-23T13:20:15.451Z,21.95
2022-12-23T13:23:45.795Z,20.05
2022-12-23T13:26:43.982Z,20.17
2022-12-23T13:29:38.046Z,20.58
2022-12-23T13:32:51.167Z,19.67
2022-12-23T13:36:06.194Z,20.88
2022-12-23T13:39:23.209Z,19.67
2022-12-23T13:42:19.970Z,19.10
2022-12-23T13:45:13.355Z,17.92
2022-12-23T13:48:22.867Z,15.23
2022-12-23T13:51:16.991Z,16.63
2022-12-23T13:54:13.975Z,15.57
2022-12-23T13:57:25.202Z,14.75
2022-12-23T14:00:16.659Z,14.90
2022-12-23T14:03:02.699Z,16.03
2022-12-23T14:05:50.833Z,15.93
2022-12-23T14:08:42.402Z,16.25
2022-12-23T14:11:32.109Z,17.65
2022-12-23T14:14:24.803Z,15.95
2022-12-23T14:17:27.417Z,17.95
2022-12-23T14:20:37.619Z,16.92
2022-12-23T14:24:11.025Z,18.33
2022-12-23T14:27:27.270Z,18.88
2022-12-23T14:30:30.784Z,18.35
2022-12-23T14:33:32.692Z,18.95
2022-12-23T14:36:26.826Z,18.70
2022-12-23T14:39:12.178Z,19.13
2022-12-23T14:42:05.146Z,18.98
2022-12-23T14:44:52.617Z,18.40
2022-12-23T14:47:40.469Z,17.23
2022-12-23T14:50:42.650Z,17.25
2022-12-23T14:53:32.275Z,16.05
2022-12-23T14:56:39.773Z,15.32
2022-12-23T14:59:46.919Z,15.20
2022-12-23T15:02:41.343Z,14.40
2022-12-23T15:05:27.535Z,14.25
2022-12-23T15:08:41.900Z,15.68
2022-12-23T15:11:32.037Z,15.85
2022-12-23T15:14:52.475Z,16.17
2022-12-23T15:17:38.447Z,15.82
2022-12-23T15:20:25.579Z,16.77
2022-12-23T15:23:16.832Z,17.90
2022-12-23T15:26:02.744Z,17.42
2022-12-23T15:28:48.512Z,17.65
2022-12-23T15:31:42.292Z,17.40
2022-12-23T15:34:33.123Z,15.73
2022-12-23T15:37:29.736Z,14.95
2022-12-23T15:40:38.576Z,17.05
2022-12-23T15:43:24.398Z,16.42
2022-12-23T15:46:29.327Z,18.42
2022-12-23T15:49:16.652Z,19.38
2022-12-23T15:52:09.741Z,18.98
2022-12-23T15:55:12.012Z,19.85
2022-12-23T15:57:59.214Z,20.42
2022-12-23T16:01:15.448Z,20.15
2022-12-23T16:04:01.633Z,18.75
2022-12-23T16:06:51.635Z,20.08
2022-12-23T16:09:37.134Z,19.45
2022-12-23T16:12:26.219Z,19.00
2022-12-23T16:15:30.941Z,19.80
2022-12-23T16:18:19.312Z,18.83
2022-12-23T16:21:11.793Z,19.63
2022-12-23T16:24:00.634Z,18.23
2022-12-23T16:26:46.517Z,18.70
2022-12-23T16:29:33.514Z,20.30
2022-12-23T16:32:20.285Z,18.52
2022-12-23T16:35:33.200Z,18.67
2022-12-23T16:41:07.062Z,16.88
2022-12-23T16:43:53.850Z,16.98
2022-12-23T16:46:46.498Z,17.08
2022-12-23T16:49:35.569Z,18.40
2022-12-23T16:52:21.709Z,18.90
2022-12-23T16:55:18.168Z,18.58
2022-12-23T16:58:03.808Z,19.10
2022-12-23T17:00:49.533Z,17.70
2022-12-23T17:03:35.066Z,19.10
2022-12-23T17:06:21.471Z,17.95
2022-12-23T17:09:10.163Z,17.95
2022-12-23T17:11:56.468Z,18.42
2022-12-23T17:14:42.243Z,17.90
2022-12-23T17:17:28.709Z,20.25
2022-12-23T17:20:14.815Z,19.48
2022-12-23T17:23:00.923Z,19.35
2022-12-23T17:25:46.313Z,20.92
2022-12-23T17:28:32.883Z,18.58
2022-12-23T17:31:26.753Z,18.55
2022-12-23T17:34:22.694Z,19.88
2022-12-23T17:37:28.253Z,20.30
2022-12-23T17:40:15.251Z,22.58
2022-12-23T17:43:00.676Z,23.50
2022-12-23T17:45:47.310Z,24.33
2022-12-23T17:48:33.891Z,26.20
2022-12-23T17:51:22.256Z,25.23
2022-12-23T17:54:24.881Z,23.63
2022-12-23T17:57:22.705Z,21.60
2022-12-23T18:00:10.541Z,21.15
2022-12-23T18:02:57.815Z,21.38
2022-12-23T18:05:43.414Z,21.55
2022-12-23T18:08:29.140Z,21.48
2022-12-23T18:11:35.769Z,21.73
2022-12-23T18:14:28.187Z,20.58
2022-12-23T18:17:17.852Z,20.92
2022-12-23T18:20:04.914Z,20.83
2022-12-23T18:22:54.056Z,22.50
2022-12-23T18:25:43.246Z,23.05
2022-12-23T18:28:28.792Z,23.73
2022-12-23T18:31:21.176Z,22.88
2022-12-23T18:36:52.460Z,23.70
2022-12-23T18:39:38.510Z,24.15
2022-12-23T18:42:23.775Z,24.95
2022-12-23T18:45:36.971Z,24.45
2022-12-23T18:48:22.454Z,25.30
2022-12-23T18:51:20.821Z,26.08
2022-12-23T18:54:06.835Z,25.52
2022-12-23T18:56:52.711Z,24.75
2022-12-23T18:59:39.862Z,24.75
2022-12-23T19:02:25.734Z,25.45
2022-12-23T19:05:27.989Z,27.85
2022-12-23T19:08:13.552Z,29.70
2022-12-23T19:11:00.281Z,29.17
2022-12-23T19:13:46.653Z,27.20
2022-12-23T19:16:32.344Z,26.83
2022-12-23T19:19:18.517Z,25.48
2022-12-23T19:22:04.277Z,25.58
2022-12-23T19:25:04.417Z,26.88
2022-12-23T19:27:51.863Z,24.73
2022-12-23T19:30:40.445Z,25.48
2022-12-23T19:33:26.022Z,24.20
2022-12-23T19:36:15.004Z,24.17
2022-12-23T19:39:00.846Z,23.60
2022-12-23T19:41:46.378Z,23.48
2022-12-23T19:44:35.729Z,22.75
2022-12-23T19:47:21.516Z,23.45
2022-12-23T19:50:08.186Z,20.85
2022-12-23T19:52:54.836Z,20.67
2022-12-23T19:55:40.721Z,23.05
2022-12-23T19:58:26.521Z,23.85
2022-12-23T20:01:22.665Z,22.92
2022-12-23T20:04:09.934Z,23.95
2022-12-23T20:06:55.343Z,23.90
2022-12-23T20:09:41.104Z,22.83
2022-12-23T20:12:28.082Z,23.42
2022-12-23T20:15:13.969Z,23.60
2022-12-23T20:17:59.792Z,23.15
2022-12-23T20:20:45.468Z,24.05
2022-12-23T20:23:31.536Z,22.67
2022-12-23T20:26:18.748Z,22.85
2022-12-23T20:29:04.707Z,22.10
2022-12-23T20:31:50.660Z,23.50
2022-12-23T20:34:39.606Z,24.10
2022-12-23T20:37:25.737Z,22.75
2022-12-23T20:40:12.886Z,23.88
2022-12-23T20:43:01.347Z,27.10
2022-12-23T20:45:46.766Z,26.63
2022-12-23T20:48:34.223Z,29.70
2022-12-23T20:51:25.468Z,28.67
2022-12-23T20:54:10.883Z,29.80
2022-12-23T20:56:56.379Z,28.98
2022-12-23T20:59:41.814Z,29.63
2022-12-23T21:02:27.234Z,31.15
2022-12-23T21:05:13.057Z,29.88
2022-12-23T21:07:58.472Z,29.98
2022-12-23T21:10:43.947Z,31.55
2022-12-23T21:13:29.364Z,30.70
2022-12-23T21:16:15.691Z,31.58
2022-12-23T21:19:01.576Z,32.83
2022-12-23T21:21:48.531Z,31.90
2022-12-23T21:24:34.222Z,31.23
2022-12-23T21:27:21.336Z,33.60
2022-12-23T21:30:08.141Z,32.20
2022-12-23T21:32:56.794Z,35.63
2022-12-23T21:35:42.559Z,35.33
2022-12-23T21:38:33.575Z,39.05
2022-12-23T21:41:27.491Z,36.55
2022-12-23T21:44:16.369Z,37.05
2022-12-23T21:47:02.152Z,32.35
2022-12-23T21:49:47.994Z,34.28
2022-12-23T21:55:16.033Z,30.83
2022-12-23T21:58:02.118Z,29.25
2022-12-23T22:00:47.821Z,29.40
2022-12-23T22:03:33.374Z,28.52
2022-12-23T22:06:21.326Z,27.42
2022-12-23T22:09:08.529Z,28.88
2022-12-23T22:11:56.583Z,26.98
2022-12-23T22:14:41.967Z,25.23
2022-12-23T22:17:27.187Z,25.50
2022-12-23T22:20:12.964Z,25.55
2022-12-23T22:22:58.490Z,25.27
2022-12-23T22:25:54.973Z,32.75
2022-12-23T22:28:41.012Z,31.05
2022-12-23T22:31:35.843Z,33.40
2022-12-23T22:34:22.689Z,37.05
2022-12-23T22:37:07.957Z,34.67
2022-12-23T22:39:53.479Z,36.13
2022-12-23T22:42:38.793Z,36.03
2022-12-23T22:45:24.297Z,35.20
2022-12-23T22:48:09.683Z,30.10
2022-12-23T22:51:12.191Z,27.27
2022-12-23T22:53:58.040Z,18.73
2022-12-23T22:56:44.055Z,27.67
2022-12-23T22:59:29.336Z,25.33
2022-12-23T23:02:15.019Z,25.60
2022-12-23T23:05:00.506Z,25.52
2022-12-23T23:07:45.973Z,26.48
2022-12-23T23:10:31.527Z,24.80
2022-12-23T23:13:17.076Z,23.90
2022-12-23T23:16:03.269Z,21.85
2022-12-23T23:18:49.069Z,23.20
2022-12-23T23:21:35.463Z,21.77
2022-12-23T23:24:23.041Z,20.90
2022-12-23T23:27:11.299Z,21.85
2022-12-23T23:29:56.734Z,18.73
2022-12-23T23:32:42.729Z,17.95
2022-12-23T23:35:28.609Z,18.85
2022-12-23T23:38:13.658Z,17.85
2022-12-23T23:40:59.156Z,18.88
2022-12-23T23:43:44.592Z,18.15
2022-12-23T23:46:31.825Z,19.23
2022-12-23T23:49:17.636Z,19.65
2022-12-23T23:52:02.988Z,27.58
2022-12-23T23:54:48.463Z,20.73
2022-12-23T23:57:34.173Z,20.77
